Terminal Aerodrome Forecast
Issued by NWS

Home | Current Version | Previous Version | Graphics & Text | Print | Product List | Glossary On
Versions: 1 2 3 4 5 6 7 8 9 10 11 12 13 14 15 16 17 18 19 20
000
FTUS43 KABR 232137 AAB
TAFATY
TAF AMD
KATY 232137Z 2322/2418 14009KT 2SM BR OVC004
      TEMPO 2322/2324 1SM BR OVC005
     FM240000 07006KT 4SM BR OVC005
     FM240700 03009KT 2SM BR OVC003
     FM241400 02015G24KT 2SM BR OVC008
     FM241700 02015G24KT 4SM BR OVC015=

USA.gov is the U.S. government's official web portal to all federal, state and local government web resources and services.